Time;durP1;ratioP1;P1;durP2;ratioP2;P2;SDS_P1;SDS_P2;PMS_P1;PMS_P2;Temp;Humidity;BMP_temperature;BMP_pressure;BME280_temperature;BME280_humidity;BME280_pressure;Samples;Min_cycle;Max_cycle;Signal;HPM_P1;HPM_P2
2023/01/16 00:00:01;;;;;;;0.73;0.70;;;;;;;;;;5077429;28;20303;-64
2023/01/16 00:02:29;;;;;;;1.10;1.00;;;;;;;;;;5077107;28;20293;-64
2023/01/16 00:04:57;;;;;;;1.17;0.90;;;;;;;;;;5077599;28;20235;-64
2023/01/16 00:07:26;;;;;;;0.93;0.70;;;;;;;;;;5077631;28;20266;-64
2023/01/16 00:09:54;;;;;;;1.02;0.80;;;;;;;;;;5077583;28;20268;-64
2023/01/16 00:12:21;;;;;;;1.13;0.80;;;;;;;;;;5077336;28;20200;-64
2023/01/16 00:14:49;;;;;;;0.80;0.80;;;;;;;;;;5077794;28;20211;-64
2023/01/16 00:17:17;;;;;;;1.13;0.70;;;;;;;;;;5077772;28;20204;-64
2023/01/16 00:19:44;;;;;;;1.35;1.00;;;;;;;;;;5077355;28;20248;-64
2023/01/16 00:22:12;;;;;;;1.25;0.90;;;;;;;;;;5077214;28;20242;-64
2023/01/16 00:24:41;;;;;;;0.73;0.73;;;;;;;;;;5077718;28;20214;-64
2023/01/16 00:27:09;;;;;;;1.15;0.70;;;;;;;;;;5077843;28;20307;-64
2023/01/16 00:29:37;;;;;;;1.15;0.77;;;;;;;;;;5077627;28;20211;-64
2023/01/16 00:32:05;;;;;;;1.00;0.80;;;;;;;;;;5077660;28;20238;-64
2023/01/16 00:34:32;;;;;;;0.73;0.68;;;;;;;;;;5077583;28;20214;-64
2023/01/16 00:37:00;;;;;;;1.13;0.90;;;;;;;;;;5077473;28;20236;-64
2023/01/16 00:39:28;;;;;;;1.05;0.70;;;;;;;;;;5077554;28;20204;-64
2023/01/16 00:41:57;;;;;;;0.70;0.60;;;;;;;;;;5077219;28;20234;-64
2023/01/16 00:44:24;;;;;;;0.80;0.70;;;;;;;;;;5077310;28;20238;-64
2023/01/16 00:46:52;;;;;;;0.85;0.65;;;;;;;;;;5077301;28;20270;-64
2023/01/16 00:49:19;;;;;;;1.00;0.90;;;;;;;;;;5077189;28;20205;-64
2023/01/16 00:51:47;;;;;;;0.85;0.77;;;;;;;;;;5077679;28;20254;-64
2023/01/16 00:54:14;;;;;;;1.30;0.85;;;;;;;;;;5077574;28;20204;-64
2023/01/16 00:56:42;;;;;;;1.17;0.80;;;;;;;;;;5076750;28;20258;-64
2023/01/16 00:59:11;;;;;;;0.80;0.73;;;;;;;;;;5077456;28;20204;-64
2023/01/16 01:01:39;;;;;;;0.93;0.77;;;;;;;;;;5077020;28;20623;-64
2023/01/16 01:04:07;;;;;;;0.77;0.68;;;;;;;;;;5076939;28;20214;-64
2023/01/16 01:06:34;;;;;;;0.98;0.80;;;;;;;;;;5077170;28;20588;-64
2023/01/16 01:09:02;;;;;;;0.73;0.68;;;;;;;;;;5077058;28;20291;-64
2023/01/16 01:11:30;;;;;;;0.85;0.68;;;;;;;;;;5077297;28;20564;-64
2023/01/16 01:13:58;;;;;;;0.98;0.60;;;;;;;;;;5077023;28;20212;-64
2023/01/16 01:16:27;;;;;;;0.60;0.60;;;;;;;;;;5077185;28;20287;-64
2023/01/16 01:18:55;;;;;;;0.80;0.68;;;;;;;;;;5076896;28;20204;-64
2023/01/16 01:21:22;;;;;;;0.90;0.77;;;;;;;;;;5077043;28;20262;-64
2023/01/16 01:23:50;;;;;;;0.70;0.63;;;;;;;;;;5080648;28;20204;-64
2023/01/16 01:26:18;;;;;;;0.80;0.80;;;;;;;;;;5080836;28;20204;-65
2023/01/16 01:28:46;;;;;;;0.85;0.70;;;;;;;;;;5081264;28;20219;-64
2023/01/16 01:31:14;;;;;;;0.93;0.85;;;;;;;;;;5080521;28;20204;-64
2023/01/16 01:33:43;;;;;;;0.77;0.70;;;;;;;;;;5080910;28;20210;-64
2023/01/16 01:36:11;;;;;;;0.70;0.68;;;;;;;;;;5080902;28;20204;-63
2023/01/16 01:38:39;;;;;;;0.73;0.73;;;;;;;;;;5080845;28;20196;-64
2023/01/16 01:41:06;;;;;;;0.90;0.60;;;;;;;;;;5080340;28;20227;-64
2023/01/16 01:43:41;;;;;;;1.08;0.60;;;;;;;;;;5080779;28;20204;-64
2023/01/16 01:46:09;;;;;;;1.02;0.70;;;;;;;;;;5080395;28;20199;-64
2023/01/16 01:48:41;;;;;;;0.88;0.70;;;;;;;;;;5080307;28;20216;-64
2023/01/16 01:51:12;;;;;;;0.70;0.70;;;;;;;;;;5080489;28;20206;-64
2023/01/16 01:53:43;;;;;;;0.57;0.50;;;;;;;;;;5080524;28;20519;-64
2023/01/16 01:56:13;;;;;;;0.60;0.60;;;;;;;;;;5080088;28;20258;-64
2023/01/16 01:58:41;;;;;;;0.65;0.60;;;;;;;;;;5080651;28;20591;-64
2023/01/16 02:01:09;;;;;;;0.80;0.60;;;;;;;;;;5080602;28;20507;-64
2023/01/16 02:03:39;;;;;;;0.68;0.68;;;;;;;;;;5080264;28;20212;-64
2023/01/16 02:06:08;;;;;;;0.82;0.65;;;;;;;;;;5080476;28;20299;-64
2023/01/16 02:08:37;;;;;;;0.93;0.60;;;;;;;;;;5079661;28;20238;-64
2023/01/16 02:11:08;;;;;;;0.52;0.47;;;;;;;;;;5080109;28;20208;-64
2023/01/16 02:13:38;;;;;;;1.00;0.70;;;;;;;;;;5080485;28;20303;-64
2023/01/16 02:21:52;;;;;;;0.80;0.80;;;;;;;;;;5079462;28;20227;-64
2023/01/16 02:24:34;;;;;;;1.00;0.80;;;;;;;;;;5080135;28;20614;-64
2023/01/16 02:27:13;;;;;;;0.63;0.50;;;;;;;;;;5079982;28;20603;-64
2023/01/16 02:30:02;;;;;;;0.60;0.60;;;;;;;;;;5080153;28;20204;-64
2023/01/16 02:32:42;;;;;;;1.05;0.60;;;;;;;;;;5079863;28;20303;-64
2023/01/16 02:35:23;;;;;;;0.80;0.80;;;;;;;;;;5079004;28;20204;-64
2023/01/16 02:37:56;;;;;;;0.63;0.63;;;;;;;;;;5079519;28;20222;-64
2023/01/16 02:40:29;;;;;;;1.05;0.80;;;;;;;;;;5079258;28;20511;-64
2023/01/16 02:43:00;;;;;;;0.60;0.50;;;;;;;;;;5079275;28;20228;-64
2023/01/16 02:45:31;;;;;;;0.50;0.50;;;;;;;;;;5080074;28;20254;-64
2023/01/16 02:48:08;;;;;;;0.60;0.60;;;;;;;;;;5079524;28;20305;-64
2023/01/16 02:50:38;;;;;;;0.50;0.50;;;;;;;;;;5079431;28;20240;-64
2023/01/16 02:53:12;;;;;;;0.50;0.50;;;;;;;;;;5079026;28;20869;-64
2023/01/16 02:55:42;;;;;;;0.57;0.57;;;;;;;;;;5079621;28;20598;-64
2023/01/16 02:58:12;;;;;;;0.73;0.63;;;;;;;;;;5079664;28;20258;-64
2023/01/16 03:00:50;;;;;;;0.70;0.70;;;;;;;;;;5079694;28;20205;-64
2023/01/16 03:03:32;;;;;;;0.70;0.50;;;;;;;;;;5078885;28;20231;-64
2023/01/16 03:06:05;;;;;;;0.70;0.50;;;;;;;;;;5079026;28;20204;-64
2023/01/16 03:08:38;;;;;;;0.60;0.60;;;;;;;;;;5078914;28;20287;-64
2023/01/16 03:11:13;;;;;;;0.60;0.60;;;;;;;;;;5079005;28;20309;-64
2023/01/16 03:13:48;;;;;;;0.60;0.60;;;;;;;;;;5079059;28;20204;-64
2023/01/16 03:16:22;;;;;;;1.10;0.73;;;;;;;;;;5078767;28;20214;-64
2023/01/16 03:18:51;;;;;;;0.60;0.50;;;;;;;;;;5078703;28;20291;-65
2023/01/16 03:21:26;;;;;;;0.75;0.60;;;;;;;;;;5078795;28;20472;-64
2023/01/16 03:23:55;;;;;;;0.50;0.50;;;;;;;;;;5079147;28;20204;-64
2023/01/16 03:26:28;;;;;;;0.57;0.57;;;;;;;;;;5078907;28;20247;-64
2023/01/16 03:29:02;;;;;;;0.80;0.60;;;;;;;;;;5078772;28;20266;-64
2023/01/16 03:31:35;;;;;;;0.40;0.40;;;;;;;;;;5078680;28;20204;-64
2023/01/16 03:34:08;;;;;;;1.30;0.70;;;;;;;;;;5078819;28;20205;-64
2023/01/16 03:36:42;;;;;;;0.60;0.47;;;;;;;;;;5078307;28;20550;-64
2023/01/16 03:39:10;;;;;;;0.60;0.60;;;;;;;;;;5078236;28;20607;-64
2023/01/16 03:41:39;;;;;;;0.50;0.40;;;;;;;;;;5077935;28;20205;-64
2023/01/16 03:44:09;;;;;;;0.73;0.50;;;;;;;;;;5078548;28;20236;-64
2023/01/16 03:46:40;;;;;;;0.70;0.60;;;;;;;;;;5077040;28;20204;-64
2023/01/16 03:49:10;;;;;;;0.52;0.45;;;;;;;;;;5078116;28;20223;-64
2023/01/16 03:51:43;;;;;;;0.60;0.50;;;;;;;;;;5078406;28;20463;-65
2023/01/16 03:54:16;;;;;;;0.70;0.57;;;;;;;;;;5078076;28;20254;-64
2023/01/16 03:56:47;;;;;;;0.68;0.60;;;;;;;;;;5077547;28;20262;-64
2023/01/16 03:59:15;;;;;;;0.80;0.50;;;;;;;;;;5078294;28;20209;-64
2023/01/16 04:01:46;;;;;;;0.73;0.50;;;;;;;;;;5078072;28;20215;-64
2023/01/16 04:04:16;;;;;;;0.80;0.60;;;;;;;;;;5077662;28;20212;-64
2023/01/16 04:06:48;;;;;;;0.52;0.50;;;;;;;;;;5077671;28;20306;-64
2023/01/16 04:09:19;;;;;;;0.60;0.43;;;;;;;;;;5077563;28;20203;-64
2023/01/16 04:11:48;;;;;;;0.43;0.43;;;;;;;;;;5077426;28;20231;-65
2023/01/16 04:14:16;;;;;;;0.70;0.60;;;;;;;;;;5077097;28;20247;-64
2023/01/16 04:16:45;;;;;;;1.15;0.60;;;;;;;;;;5077788;28;20223;-64
2023/01/16 04:19:14;;;;;;;0.77;0.40;;;;;;;;;;5077358;28;20350;-63
2023/01/16 04:21:44;;;;;;;0.90;0.60;;;;;;;;;;5077288;28;20213;-63
2023/01/16 04:24:13;;;;;;;0.57;0.50;;;;;;;;;;5077749;28;20235;-63
2023/01/16 04:26:41;;;;;;;0.57;0.57;;;;;;;;;;5076988;28;20204;-63
2023/01/16 04:29:08;;;;;;;0.90;0.50;;;;;;;;;;5077620;28;20211;-63
2023/01/16 04:31:37;;;;;;;1.10;0.50;;;;;;;;;;5077453;28;20212;-63
2023/01/16 04:34:04;;;;;;;0.50;0.50;;;;;;;;;;5076891;28;20204;-63
2023/01/16 04:36:32;;;;;;;1.13;0.80;;;;;;;;;;5077221;28;20265;-63
2023/01/16 04:39:00;;;;;;;0.45;0.43;;;;;;;;;;5077255;28;20302;-64
2023/01/16 04:41:39;;;;;;;0.52;0.52;;;;;;;;;;5077247;28;20204;-63
2023/01/16 04:44:08;;;;;;;0.50;0.50;;;;;;;;;;5076819;28;20271;-63
2023/01/16 04:46:37;;;;;;;0.40;0.40;;;;;;;;;;5077338;28;20577;-63
2023/01/16 04:49:05;;;;;;;0.50;0.50;;;;;;;;;;5077123;28;20211;-63
2023/01/16 04:51:33;;;;;;;0.63;0.52;;;;;;;;;;5077531;28;20250;-63
2023/01/16 04:54:01;;;;;;;1.23;0.50;;;;;;;;;;5076942;28;20207;-63
2023/01/16 04:56:30;;;;;;;0.50;0.45;;;;;;;;;;5076473;28;20335;-63
2023/01/16 04:58:58;;;;;;;0.65;0.50;;;;;;;;;;5076648;28;20299;-63
2023/01/16 05:01:26;;;;;;;0.50;0.50;;;;;;;;;;5077319;28;20322;-63
2023/01/16 05:03:53;;;;;;;0.75;0.50;;;;;;;;;;5076644;28;20322;-63
2023/01/16 05:06:20;;;;;;;0.60;0.45;;;;;;;;;;5076986;28;20298;-63
2023/01/16 05:08:48;;;;;;;1.00;0.60;;;;;;;;;;5076883;28;20210;-63
2023/01/16 05:11:15;;;;;;;0.68;0.60;;;;;;;;;;5076815;28;20246;-63
2023/01/16 05:13:44;;;;;;;0.52;0.50;;;;;;;;;;5077060;28;20777;-63
2023/01/16 05:16:11;;;;;;;0.50;0.50;;;;;;;;;;5076551;28;20687;-63
2023/01/16 05:18:39;;;;;;;0.55;0.50;;;;;;;;;;5075695;28;20267;-63
2023/01/16 05:21:07;;;;;;;0.80;0.40;;;;;;;;;;5075552;28;20240;-63
2023/01/16 05:23:34;;;;;;;0.75;0.57;;;;;;;;;;5076083;28;20319;-63
2023/01/16 05:26:02;;;;;;;0.55;0.55;;;;;;;;;;5075546;28;20296;-65
2023/01/16 05:28:29;;;;;;;0.40;0.40;;;;;;;;;;5075968;28;20212;-64
2023/01/16 05:30:59;;;;;;;0.52;0.50;;;;;;;;;;5075777;28;20197;-63
2023/01/16 05:33:26;;;;;;;0.70;0.52;;;;;;;;;;5076132;28;20497;-63
2023/01/16 05:35:54;;;;;;;1.02;0.50;;;;;;;;;;5076078;28;20214;-63
2023/01/16 05:38:22;;;;;;;0.70;0.55;;;;;;;;;;5075863;28;20216;-63
2023/01/16 05:40:49;;;;;;;0.80;0.47;;;;;;;;;;5075804;28;20205;-63
2023/01/16 05:43:17;;;;;;;0.90;0.50;;;;;;;;;;5075107;28;20223;-63
2023/01/16 05:45:44;;;;;;;0.52;0.50;;;;;;;;;;5068015;28;20491;-63
2023/01/16 05:48:13;;;;;;;0.60;0.50;;;;;;;;;;5058363;28;20220;-63
2023/01/16 05:50:40;;;;;;;0.60;0.60;;;;;;;;;;5054956;28;20292;-63
2023/01/16 05:53:08;;;;;;;0.50;0.50;;;;;;;;;;5054591;28;20205;-63
2023/01/16 05:55:41;;;;;;;0.93;0.60;;;;;;;;;;5067967;28;20538;-63
2023/01/16 05:58:10;;;;;;;0.68;0.40;;;;;;;;;;5054310;28;20209;-63
2023/01/16 06:00:37;;;;;;;1.02;0.60;;;;;;;;;;5058522;28;20201;-63
2023/01/16 06:03:05;;;;;;;0.95;0.50;;;;;;;;;;5073865;28;20224;-63
2023/01/16 06:05:34;;;;;;;0.63;0.47;;;;;;;;;;5073387;28;20537;-64
2023/01/16 06:08:01;;;;;;;0.70;0.52;;;;;;;;;;5073775;28;20200;-63
2023/01/16 06:10:31;;;;;;;0.77;0.60;;;;;;;;;;5076590;28;20762;-64
2023/01/16 06:12:59;;;;;;;0.55;0.40;;;;;;;;;;5076348;28;20633;-64
2023/01/16 06:15:27;;;;;;;0.80;0.60;;;;;;;;;;5076644;28;20196;-63
2023/01/16 06:17:56;;;;;;;0.55;0.50;;;;;;;;;;5076793;28;20204;-64
2023/01/16 06:20:23;;;;;;;0.60;0.50;;;;;;;;;;5077067;28;20312;-63
2023/01/16 06:22:52;;;;;;;0.38;0.30;;;;;;;;;;5075937;28;20231;-63
2023/01/16 06:25:19;;;;;;;0.65;0.60;;;;;;;;;;5075338;28;20204;-63
2023/01/16 06:27:49;;;;;;;1.08;0.60;;;;;;;;;;5076175;28;20488;-64
2023/01/16 06:30:17;;;;;;;0.30;0.30;;;;;;;;;;5076653;28;20205;-64
2023/01/16 06:32:45;;;;;;;0.60;0.50;;;;;;;;;;5076253;28;20200;-64
2023/01/16 06:35:12;;;;;;;0.50;0.50;;;;;;;;;;5075743;28;20215;-63
2023/01/16 06:37:40;;;;;;;0.47;0.47;;;;;;;;;;5075052;28;20331;-63
2023/01/16 06:40:09;;;;;;;0.95;0.60;;;;;;;;;;5075775;28;20501;-64
2023/01/16 06:42:37;;;;;;;0.65;0.55;;;;;;;;;;5075562;28;20228;-64
2023/01/16 06:45:04;;;;;;;2.45;0.68;;;;;;;;;;5076229;28;20534;-64
2023/01/16 06:47:32;;;;;;;0.70;0.50;;;;;;;;;;5076985;28;20311;-64
2023/01/16 06:49:59;;;;;;;1.00;0.60;;;;;;;;;;5075183;28;20298;-64
2023/01/16 06:52:27;;;;;;;0.82;0.50;;;;;;;;;;5076972;28;20200;-64
2023/01/16 06:54:55;;;;;;;1.23;0.40;;;;;;;;;;5076625;28;20287;-63
2023/01/16 06:57:24;;;;;;;0.77;0.40;;;;;;;;;;5075503;28;20323;-63
2023/01/16 06:59:51;;;;;;;0.73;0.50;;;;;;;;;;5075739;28;20299;-63
2023/01/16 07:02:19;;;;;;;1.20;0.60;;;;;;;;;;5075770;28;20211;-64
2023/01/16 07:04:46;;;;;;;0.80;0.60;;;;;;;;;;5076287;28;20580;-64
2023/01/16 07:07:14;;;;;;;2.50;0.60;;;;;;;;;;5076888;28;20204;-65
2023/01/16 07:09:41;;;;;;;1.42;0.60;;;;;;;;;;5076620;28;20216;-63
2023/01/16 07:12:09;;;;;;;0.93;0.60;;;;;;;;;;5076536;28;20312;-63
2023/01/16 07:22:53;;;;;;;1.05;0.55;;;;;;;;;;5075905;28;20223;-63
2023/01/16 07:25:22;;;;;;;1.88;0.60;;;;;;;;;;5076279;28;20210;-64
2023/01/16 07:27:51;;;;;;;1.17;0.50;;;;;;;;;;5075921;28;20281;-63
2023/01/16 07:30:21;;;;;;;2.60;0.85;;;;;;;;;;5075419;28;20577;-63
2023/01/16 07:32:49;;;;;;;1.23;0.70;;;;;;;;;;5075627;28;20291;-63
2023/01/16 07:35:16;;;;;;;1.15;0.70;;;;;;;;;;5075357;28;20291;-63
2023/01/16 07:37:45;;;;;;;1.77;0.70;;;;;;;;;;5075535;28;20298;-64
2023/01/16 07:40:13;;;;;;;1.17;0.50;;;;;;;;;;5075878;28;20266;-64
2023/01/16 07:42:41;;;;;;;0.93;0.50;;;;;;;;;;5075480;28;20236;-64
2023/01/16 07:45:09;;;;;;;0.68;0.60;;;;;;;;;;5075404;28;20362;-63
2023/01/16 07:47:37;;;;;;;1.70;0.50;;;;;;;;;;5074814;28;20208;-63
2023/01/16 07:50:05;;;;;;;1.05;0.60;;;;;;;;;;5075630;28;20222;-63
2023/01/16 07:52:33;;;;;;;2.00;0.63;;;;;;;;;;5075944;28;20717;-63
2023/01/16 07:55:00;;;;;;;2.67;0.70;;;;;;;;;;5074697;28;20206;-64
2023/01/16 07:57:28;;;;;;;1.52;0.50;;;;;;;;;;5075598;28;20681;-64
2023/01/16 07:59:55;;;;;;;0.95;0.60;;;;;;;;;;5074599;28;20291;-63
2023/01/16 08:02:23;;;;;;;1.58;0.70;;;;;;;;;;5074099;28;20336;-64
2023/01/16 08:04:51;;;;;;;2.35;0.80;;;;;;;;;;5075458;28;20224;-63
2023/01/16 08:07:19;;;;;;;1.42;0.55;;;;;;;;;;5074378;28;20200;-63
2023/01/16 08:09:46;;;;;;;0.90;0.60;;;;;;;;;;5074625;28;20254;-64
2023/01/16 08:12:14;;;;;;;2.50;0.57;;;;;;;;;;5075488;28;20631;-64
2023/01/16 08:14:41;;;;;;;1.30;0.90;;;;;;;;;;5074687;28;20291;-63
2023/01/16 08:17:08;;;;;;;0.60;0.60;;;;;;;;;;5074518;28;20349;-63
2023/01/16 08:19:36;;;;;;;0.57;0.55;;;;;;;;;;5073721;28;20231;-63
2023/01/16 08:22:05;;;;;;;1.20;0.60;;;;;;;;;;5074833;28;20211;-63
2023/01/16 08:24:32;;;;;;;1.52;0.80;;;;;;;;;;5074839;28;20322;-64
2023/01/16 08:26:59;;;;;;;1.48;0.60;;;;;;;;;;5074489;28;20228;-63
2023/01/16 08:29:27;;;;;;;1.27;0.60;;;;;;;;;;5074039;28;20204;-63
2023/01/16 08:31:54;;;;;;;1.40;0.50;;;;;;;;;;5073899;28;20308;-63
2023/01/16 08:34:22;;;;;;;1.42;0.50;;;;;;;;;;5074391;28;20817;-64
2023/01/16 08:36:49;;;;;;;0.73;0.70;;;;;;;;;;5074090;28;20657;-64
2023/01/16 08:39:18;;;;;;;0.85;0.70;;;;;;;;;;5074752;28;20239;-64
2023/01/16 08:52:50;;;;;;;1.38;0.65;;;;;;;;;;5042856;28;20291;-63
2023/01/16 08:55:19;;;;;;;1.08;0.80;;;;;;;;;;5073929;28;20287;-64
2023/01/16 08:57:46;;;;;;;1.65;0.77;;;;;;;;;;5074681;28;20312;-63
2023/01/16 09:00:14;;;;;;;0.85;0.60;;;;;;;;;;5074237;28;20204;-63
2023/01/16 09:02:42;;;;;;;0.68;0.60;;;;;;;;;;5074298;28;20311;-63
2023/01/16 09:05:09;;;;;;;0.90;0.75;;;;;;;;;;5073998;28;20230;-63
2023/01/16 09:07:37;;;;;;;0.73;0.50;;;;;;;;;;5073376;28;20204;-64
2023/01/16 09:10:04;;;;;;;2.47;0.70;;;;;;;;;;5074536;28;20203;-64
2023/01/16 09:15:19;;;;;;;1.38;0.77;;;;;;;;;;5074504;28;20200;-63
2023/01/16 09:17:47;;;;;;;0.85;0.60;;;;;;;;;;5075140;28;20481;-63
2023/01/16 09:20:14;;;;;;;0.70;0.60;;;;;;;;;;5073580;28;20204;-64
2023/01/16 09:22:42;;;;;;;0.95;0.43;;;;;;;;;;5074814;28;20236;-64
2023/01/16 09:25:10;;;;;;;0.50;0.50;;;;;;;;;;5074867;28;20539;-64
2023/01/16 09:27:38;;;;;;;0.95;0.70;;;;;;;;;;5074936;28;20204;-63
2023/01/16 09:30:06;;;;;;;1.00;0.70;;;;;;;;;;5074523;28;20204;-63
2023/01/16 09:32:34;;;;;;;0.80;0.50;;;;;;;;;;5074505;28;20232;-63
2023/01/16 09:35:01;;;;;;;0.70;0.70;;;;;;;;;;5074397;28;20439;-63
2023/01/16 09:37:29;;;;;;;1.02;0.55;;;;;;;;;;5074181;28;20196;-63
2023/01/16 09:39:56;;;;;;;0.73;0.65;;;;;;;;;;5074657;28;20303;-63
2023/01/16 09:45:19;;;;;;;0.80;0.55;;;;;;;;;;5077780;28;20304;-64
2023/01/16 09:47:49;;;;;;;1.20;0.80;;;;;;;;;;5077780;28;20205;-63
2023/01/16 09:50:19;;;;;;;1.05;0.68;;;;;;;;;;5077844;28;20212;-63
2023/01/16 10:01:11;;;;;;;0.90;0.50;;;;;;;;;;5071218;28;20232;-63
2023/01/16 10:03:42;;;;;;;0.95;0.63;;;;;;;;;;5077276;28;20259;-63
2023/01/16 10:06:16;;;;;;;0.60;0.40;;;;;;;;;;5077586;28;20215;-63
2023/01/16 10:08:47;;;;;;;0.80;0.60;;;;;;;;;;5076707;28;20606;-63
2023/01/16 10:11:19;;;;;;;1.23;0.60;;;;;;;;;;5077630;28;20218;-63
2023/01/16 10:14:00;;;;;;;1.85;0.90;;;;;;;;;;5077421;28;20207;-63
2023/01/16 10:16:36;;;;;;;0.60;0.47;;;;;;;;;;5076704;28;20207;-64
2023/01/16 10:19:07;;;;;;;0.85;0.55;;;;;;;;;;5076110;28;20212;-64
2023/01/16 10:21:41;;;;;;;0.70;0.60;;;;;;;;;;5075566;28;20285;-64
2023/01/16 10:24:13;;;;;;;1.48;0.50;;;;;;;;;;5077193;28;20306;-64
2023/01/16 10:26:48;;;;;;;1.08;0.73;;;;;;;;;;5076727;28;20626;-64
2023/01/16 10:29:21;;;;;;;1.35;0.65;;;;;;;;;;5076464;28;20252;-64
2023/01/16 10:31:53;;;;;;;1.33;0.57;;;;;;;;;;5075752;28;20208;-64
2023/01/16 10:34:21;;;;;;;1.08;0.60;;;;;;;;;;5076366;28;20292;-64
2023/01/16 10:36:51;;;;;;;1.08;0.60;;;;;;;;;;5076655;28;20506;-64
2023/01/16 10:39:19;;;;;;;0.68;0.57;;;;;;;;;;5075061;28;20283;-64
2023/01/16 10:50:12;;;;;;;0.50;0.50;;;;;;;;;;5076059;28;20201;-64
2023/01/16 10:52:39;;;;;;;1.00;0.52;;;;;;;;;;5075526;28;20208;-64
2023/01/16 10:55:08;;;;;;;1.17;0.60;;;;;;;;;;5074910;28;20266;-64
2023/01/16 10:57:36;;;;;;;0.88;0.75;;;;;;;;;;5075332;28;20335;-64
2023/01/16 11:00:06;;;;;;;0.65;0.55;;;;;;;;;;5075874;28;20294;-70
2023/01/16 11:02:35;;;;;;;0.93;0.60;;;;;;;;;;5074725;28;20212;-70
2023/01/16 11:05:03;;;;;;;1.27;0.60;;;;;;;;;;5075761;28;20228;-70
2023/01/16 11:07:31;;;;;;;0.70;0.50;;;;;;;;;;5076161;28;20246;-70
2023/01/16 11:10:01;;;;;;;1.13;0.60;;;;;;;;;;5075228;28;20212;-68
2023/01/16 11:18:31;;;;;;;0.52;0.47;;;;;;;;;;5074808;28;20245;-68
2023/01/16 11:21:00;;;;;;;0.63;0.60;;;;;;;;;;5075182;28;20201;-68
2023/01/16 11:23:29;;;;;;;1.25;0.63;;;;;;;;;;5075505;28;20208;-68
2023/01/16 11:25:58;;;;;;;0.85;0.50;;;;;;;;;;5075200;28;20228;-68
2023/01/16 11:28:27;;;;;;;1.55;0.57;;;;;;;;;;5075465;28;20253;-67
2023/01/16 11:30:56;;;;;;;0.60;0.50;;;;;;;;;;5074718;28;20254;-68
2023/01/16 11:33:27;;;;;;;1.52;0.65;;;;;;;;;;5073858;28;20633;-68
2023/01/16 11:35:56;;;;;;;1.20;0.50;;;;;;;;;;5074878;28;20727;-68
2023/01/16 11:38:24;;;;;;;1.17;0.50;;;;;;;;;;5074507;28;20201;-68
2023/01/16 11:40:52;;;;;;;0.50;0.50;;;;;;;;;;5073952;28;20298;-68
2023/01/16 11:46:19;;;;;;;1.10;0.60;;;;;;;;;;5075140;28;20203;-67
2023/01/16 11:48:53;;;;;;;1.05;0.60;;;;;;;;;;5074442;28;20204;-68
2023/01/16 11:51:22;;;;;;;0.90;0.50;;;;;;;;;;5075320;28;20768;-68
2023/01/16 11:53:50;;;;;;;0.80;0.60;;;;;;;;;;5075452;28;20580;-68
2023/01/16 11:56:35;;;;;;;0.50;0.40;;;;;;;;;;5066605;28;20228;-67
2023/01/16 11:59:08;;;;;;;1.25;0.52;;;;;;;;;;5055211;28;20321;-68
2023/01/16 12:04:32;;;;;;;0.82;0.55;;;;;;;;;;5042884;28;20224;-68
2023/01/16 12:07:05;;;;;;;0.77;0.60;;;;;;;;;;5052920;28;20204;-67
2023/01/16 12:09:46;;;;;;;0.93;0.55;;;;;;;;;;5054369;28;20296;-68
2023/01/16 12:15:15;;;;;;;0.80;0.50;;;;;;;;;;5053739;28;20200;-68
2023/01/16 12:17:48;;;;;;;0.95;0.57;;;;;;;;;;5054502;28;20549;-68
2023/01/16 12:20:20;;;;;;;0.95;0.50;;;;;;;;;;5054149;28;20231;-68
2023/01/16 12:23:04;;;;;;;0.40;0.40;;;;;;;;;;5053831;28;20304;-68
2023/01/16 12:25:35;;;;;;;0.80;0.60;;;;;;;;;;5053961;28;20672;-68
2023/01/16 12:28:07;;;;;;;0.55;0.45;;;;;;;;;;5052869;28;20240;-68
2023/01/16 12:30:42;;;;;;;1.10;0.60;;;;;;;;;;5052348;28;20205;-67
2023/01/16 12:33:13;;;;;;;1.77;0.65;;;;;;;;;;5052922;28;20270;-68
2023/01/16 12:35:49;;;;;;;0.70;0.60;;;;;;;;;;5053433;28;20201;-68
2023/01/16 12:38:17;;;;;;;0.80;0.52;;;;;;;;;;5053271;28;20220;-68
2023/01/16 12:43:17;;;;;;;0.63;0.57;;;;;;;;;;5052479;28;20201;-68
2023/01/16 12:43:51;;;;;;;0.70;0.63;;;;;;;;;;5053475;28;20204;-68
2023/01/16 12:46:22;;;;;;;0.43;0.40;;;;;;;;;;5052706;28;20225;-67
2023/01/16 12:48:57;;;;;;;0.65;0.50;;;;;;;;;;5052368;28;20231;-67
2023/01/16 12:51:30;;;;;;;0.80;0.50;;;;;;;;;;5052694;28;20205;-68
2023/01/16 12:54:15;;;;;;;1.20;0.60;;;;;;;;;;5053226;28;20211;-68
2023/01/16 12:56:49;;;;;;;0.95;0.40;;;;;;;;;;5052497;28;20635;-67
2023/01/16 12:59:19;;;;;;;1.05;0.55;;;;;;;;;;5053270;28;20240;-68
2023/01/16 13:01:49;;;;;;;0.50;0.50;;;;;;;;;;5052311;28;20299;-69
2023/01/16 13:04:19;;;;;;;0.57;0.40;;;;;;;;;;5052777;28;20205;-68
2023/01/16 13:06:49;;;;;;;0.57;0.40;;;;;;;;;;5053039;28;20307;-68
2023/01/16 13:09:23;;;;;;;0.70;0.47;;;;;;;;;;5052666;28;20240;-68
2023/01/16 13:14:42;;;;;;;1.05;0.50;;;;;;;;;;5052332;28;20189;-67
2023/01/16 13:17:12;;;;;;;0.80;0.50;;;;;;;;;;5052581;28;20213;-68
2023/01/16 13:19:41;;;;;;;0.80;0.40;;;;;;;;;;5057907;28;20205;-68
2023/01/16 13:22:16;;;;;;;0.45;0.45;;;;;;;;;;5058329;28;20213;-68
2023/01/16 13:24:47;;;;;;;1.10;0.45;;;;;;;;;;5057732;28;20220;-68
2023/01/16 13:27:17;;;;;;;0.60;0.43;;;;;;;;;;5056893;28;20205;-68
2023/01/16 13:29:48;;;;;;;0.80;0.50;;;;;;;;;;5055909;28;20212;-68
2023/01/16 13:32:24;;;;;;;0.80;0.57;;;;;;;;;;5056270;28;20304;-68
2023/01/16 13:34:54;;;;;;;0.60;0.35;;;;;;;;;;5056946;28;20232;-68
2023/01/16 13:37:32;;;;;;;0.63;0.50;;;;;;;;;;5055606;28;20209;-68
2023/01/16 13:40:11;;;;;;;0.55;0.40;;;;;;;;;;5056030;28;20209;-69
2023/01/16 13:42:41;;;;;;;0.28;0.25;;;;;;;;;;5056295;28;20212;-68
2023/01/16 13:48:02;;;;;;;0.50;0.50;;;;;;;;;;5055365;28;20607;-68
2023/01/16 13:50:32;;;;;;;0.50;0.50;;;;;;;;;;5056209;28;20209;-68
2023/01/16 13:53:03;;;;;;;0.77;0.57;;;;;;;;;;5054974;28;20213;-68
2023/01/16 13:55:32;;;;;;;0.40;0.40;;;;;;;;;;5056344;28;20292;-68
2023/01/16 13:58:08;;;;;;;0.40;0.40;;;;;;;;;;5056766;28;20209;-68
2023/01/16 14:00:36;;;;;;;0.50;0.50;;;;;;;;;;5056577;28;20200;-68
2023/01/16 14:03:18;;;;;;;0.68;0.50;;;;;;;;;;5056166;28;20196;-67
2023/01/16 14:05:48;;;;;;;0.65;0.38;;;;;;;;;;5055549;28;20225;-68
2023/01/16 14:11:14;;;;;;;0.80;0.50;;;;;;;;;;5056506;28;20200;-68
2023/01/16 14:13:42;;;;;;;0.40;0.40;;;;;;;;;;5056442;28;20212;-68
2023/01/16 14:16:35;;;;;;;0.77;0.60;;;;;;;;;;5055970;28;20201;-68
2023/01/16 14:19:03;;;;;;;0.38;0.38;;;;;;;;;;5056314;28;20244;-68
2023/01/16 14:21:40;;;;;;;0.40;0.40;;;;;;;;;;5056451;28;20270;-67
2023/01/16 14:24:14;;;;;;;0.90;0.60;;;;;;;;;;5056431;28;20240;-68
2023/01/16 14:26:44;;;;;;;0.50;0.45;;;;;;;;;;5056272;28;20234;-68
2023/01/16 14:29:22;;;;;;;0.40;0.40;;;;;;;;;;5055237;28;20202;-69
2023/01/16 14:31:54;;;;;;;0.60;0.40;;;;;;;;;;5056472;28;20197;-68
2023/01/16 14:34:23;;;;;;;0.63;0.50;;;;;;;;;;5056217;28;20215;-68
2023/01/16 14:36:52;;;;;;;0.47;0.47;;;;;;;;;;5052338;28;20454;-68
2023/01/16 14:39:34;;;;;;;0.60;0.60;;;;;;;;;;5055953;28;20573;-67
2023/01/16 14:56:19;;;;;;;0.60;0.60;;;;;;;;;;5060475;28;20242;-69
2023/01/16 14:58:49;;;;;;;0.90;0.60;;;;;;;;;;5074811;28;20196;-67
2023/01/16 15:04:08;;;;;;;0.40;0.40;;;;;;;;;;5074904;28;20192;-68
2023/01/16 15:06:41;;;;;;;0.40;0.40;;;;;;;;;;5074522;28;20339;-68
2023/01/16 15:09:15;;;;;;;0.77;0.60;;;;;;;;;;5075336;28;20204;-68
2023/01/16 15:11:51;;;;;;;0.40;0.40;;;;;;;;;;5075048;28;20234;-68
2023/01/16 15:14:28;;;;;;;1.00;0.40;;;;;;;;;;5074675;28;20772;-68
2023/01/16 15:22:46;;;;;;;0.40;0.40;;;;;;;;;;5074100;28;20239;-68
2023/01/16 15:25:20;;;;;;;0.40;0.40;;;;;;;;;;5073832;28;20232;-68
2023/01/16 15:27:52;;;;;;;0.55;0.55;;;;;;;;;;5075322;28;20660;-68
2023/01/16 15:30:21;;;;;;;0.77;0.60;;;;;;;;;;5074480;28;20306;-68
2023/01/16 15:32:55;;;;;;;0.43;0.43;;;;;;;;;;5074519;28;20211;-68
2023/01/16 15:35:23;;;;;;;0.60;0.60;;;;;;;;;;5075300;28;20294;-67
2023/01/16 15:37:52;;;;;;;0.80;0.70;;;;;;;;;;5074446;28;20204;-68
2023/01/16 15:40:25;;;;;;;0.60;0.50;;;;;;;;;;5074898;28;20204;-67
2023/01/16 15:48:39;;;;;;;0.80;0.50;;;;;;;;;;5074976;28;20200;-68
2023/01/16 15:51:10;;;;;;;0.93;0.60;;;;;;;;;;5073794;28;20714;-67
2023/01/16 15:53:40;;;;;;;0.73;0.63;;;;;;;;;;5074734;28;20205;-68
2023/01/16 15:56:12;;;;;;;1.67;0.70;;;;;;;;;;5074688;28;20232;-67
2023/01/16 15:58:42;;;;;;;0.57;0.57;;;;;;;;;;5074931;28;20200;-68
2023/01/16 16:01:11;;;;;;;0.90;0.60;;;;;;;;;;5075877;28;20291;-68
2023/01/16 16:03:40;;;;;;;0.50;0.50;;;;;;;;;;5075530;28;20196;-68
2023/01/16 16:06:09;;;;;;;0.75;0.63;;;;;;;;;;5075016;28;20623;-67
2023/01/16 16:08:38;;;;;;;0.63;0.50;;;;;;;;;;5073596;28;20287;-68
2023/01/16 16:13:53;;;;;;;1.13;0.60;;;;;;;;;;5073788;28;20192;-68
2023/01/16 16:19:09;;;;;;;1.40;0.60;;;;;;;;;;5048645;28;20200;-67
2023/01/16 16:22:47;;;;;;;0.80;0.70;;;;;;;;;;5074158;28;20299;-67
2023/01/16 16:24:26;;;;;;;1.05;0.70;;;;;;;;;;5075505;28;20208;-68
2023/01/16 16:26:53;;;;;;;1.45;0.70;;;;;;;;;;5074547;28;20599;-68
2023/01/16 16:29:23;;;;;;;0.60;0.60;;;;;;;;;;5073877;28;20240;-68
2023/01/16 16:31:50;;;;;;;0.70;0.57;;;;;;;;;;5074073;28;20286;-68
2023/01/16 16:34:19;;;;;;;0.68;0.65;;;;;;;;;;5073850;28;20295;-68
2023/01/16 16:36:48;;;;;;;0.80;0.70;;;;;;;;;;5074924;28;20207;-68
2023/01/16 16:39:28;;;;;;;0.68;0.60;;;;;;;;;;5073759;28;20322;-67
2023/01/16 16:44:43;;;;;;;0.88;0.80;;;;;;;;;;5073062;28;20326;-68
2023/01/16 16:47:23;;;;;;;0.70;0.68;;;;;;;;;;5074292;28;20287;-68